Time;durP1;ratioP1;P1;durP2;ratioP2;P2;SDS_P1;SDS_P2;PMS_P1;PMS_P2;Temp;Humidity;BMP_temperature;BMP_pressure;BME280_temperature;BME280_humidity;BME280_pressure;Samples;Min_cycle;Max_cycle;Signal;HPM_P1;HPM_P2
2022/06/21 00:01:13;;;;;;;11.30;4.50;;;;;;;18.41;90.77;101631.59;7391333;19;20078;-42
2022/06/21 00:03:42;;;;;;;9.25;4.72;;;;;;;18.27;91.41;101632.50;7390368;19;20024;-41
2022/06/21 00:06:14;;;;;;;10.18;4.60;;;;;;;18.14;92.25;101622.66;7392902;19;20022;-40
2022/06/21 00:08:43;;;;;;;12.43;5.05;;;;;;;18.03;94.19;101627.78;7392418;19;20014;-41
2022/06/21 00:11:26;;;;;;;10.02;4.82;;;;;;;18.06;95.00;101630.25;7393136;19;20356;-41
2022/06/21 00:13:55;;;;;;;11.70;5.25;;;;;;;17.97;95.10;101630.84;7392274;19;20027;-41
2022/06/21 00:16:29;;;;;;;9.55;4.75;;;;;;;17.93;95.58;101616.91;7392254;19;20101;-41
2022/06/21 00:18:58;;;;;;;10.35;4.90;;;;;;;17.93;95.80;101616.91;7392597;19;20018;-41
2022/06/21 00:21:33;;;;;;;12.93;5.28;;;;;;;17.90;95.60;101619.75;7392892;19;20412;-41
2022/06/21 00:24:02;;;;;;;11.07;5.57;;;;;;;17.87;96.21;101619.09;7392020;19;20021;-41
2022/06/21 00:26:32;;;;;;;10.43;5.85;;;;;;;17.76;96.56;101604.66;7392446;19;20022;-41
2022/06/21 00:29:02;;;;;;;12.32;5.32;;;;;;;17.76;97.43;101604.66;7391802;19;20057;-43
2022/06/21 00:31:36;;;;;;;11.65;5.70;;;;;;;17.75;97.45;101602.13;7392367;19;20023;-41
2022/06/21 00:34:09;;;;;;;13.27;5.53;;;;;;;17.74;96.82;101601.28;7392083;19;20081;-41
2022/06/21 00:36:39;;;;;;;10.05;5.28;;;;;;;17.67;98.16;101591.16;7390984;19;20011;-41
2022/06/21 00:39:09;;;;;;;7.80;5.07;;;;;;;17.62;98.76;101600.25;7392207;19;20018;-41
2022/06/21 00:41:43;;;;;;;10.95;5.20;;;;;;;17.72;98.15;101595.19;7391925;19;20499;-45
2022/06/21 00:44:17;;;;;;;9.40;5.10;;;;;;;17.81;97.58;101601.75;7391079;19;20071;-41
2022/06/21 00:46:52;;;;;;;8.60;3.83;;;;;;;17.57;98.24;101602.31;7391641;19;20022;-42
2022/06/21 00:49:27;;;;;;;9.93;3.90;;;;;;;17.35;100.00;101600.13;7391349;19;20023;-41
2022/06/21 00:52:01;;;;;;;10.40;3.88;;;;;;;17.40;100.00;101591.91;7391484;19;20018;-41
2022/06/21 00:54:35;;;;;;;9.13;3.88;;;;;;;17.32;100.00;101597.66;7390177;19;20018;-41
2022/06/21 00:57:13;;;;;;;9.95;4.10;;;;;;;17.32;100.00;101584.41;7393240;19;20015;-41
2022/06/21 00:59:42;;;;;;;10.20;3.78;;;;;;;17.36;100.00;101593.88;7398208;19;20486;-41
2022/06/21 01:02:21;;;;;;;7.95;3.67;;;;;;;17.37;100.00;101589.44;7399806;19;20016;-41
2022/06/21 01:04:56;;;;;;;8.20;3.95;;;;;;;17.78;98.73;101578.94;7397353;19;20027;-41
2022/06/21 01:07:25;;;;;;;9.48;4.28;;;;;;;17.62;98.22;101592.28;7399133;19;20017;-41
2022/06/21 01:10:00;;;;;;;10.10;3.97;;;;;;;17.50;100.00;101601.00;7397666;19;20014;-41
2022/06/21 01:12:35;;;;;;;9.13;4.00;;;;;;;17.59;100.00;101613.66;7397922;19;20061;-41
2022/06/21 01:15:10;;;;;;;8.48;3.55;;;;;;;17.29;100.00;101600.47;7396918;19;20025;-42
2022/06/21 01:17:41;;;;;;;7.90;3.90;;;;;;;17.21;100.00;101595.66;7396445;19;20015;-40
2022/06/21 01:20:15;;;;;;;10.52;4.57;;;;;;;17.40;100.00;101589.25;7406966;19;20045;-41
2022/06/21 01:22:53;;;;;;;10.00;4.40;;;;;;;17.63;99.24;101582.53;7413385;19;20487;-42
2022/06/21 01:25:31;;;;;;;11.52;4.55;;;;;;;17.26;100.00;101579.47;7410670;19;20018;-41
2022/06/21 01:28:03;;;;;;;12.80;4.88;;;;;;;17.09;100.00;101565.47;7413590;19;20015;-42
2022/06/21 01:30:33;;;;;;;9.70;4.73;;;;;;;17.02;100.00;101577.38;7413301;19;20033;-41
2022/06/21 01:33:03;;;;;;;9.05;4.70;;;;;;;17.01;100.00;101566.88;7414410;19;20010;-42
2022/06/21 01:35:43;;;;;;;8.52;5.10;;;;;;;16.89;100.00;101568.44;7413707;19;20023;-41
2022/06/21 01:38:16;;;;;;;8.55;4.57;;;;;;;16.82;100.00;101573.22;7411882;19;20019;-41
2022/06/21 01:40:49;;;;;;;8.02;4.35;;;;;;;16.79;100.00;101570.72;7412937;19;20768;-41
2022/06/21 01:43:24;;;;;;;8.93;4.45;;;;;;;16.90;100.00;101575.44;7412299;19;20021;-41
2022/06/21 01:45:58;;;;;;;11.50;5.53;;;;;;;17.06;100.00;101570.09;7411277;19;20017;-41
2022/06/21 01:48:30;;;;;;;10.15;5.07;;;;;;;16.88;100.00;101564.09;7409253;19;20059;-41
2022/06/21 01:51:08;;;;;;;10.15;5.20;;;;;;;16.73;100.00;101574.59;7411178;19;20018;-40
2022/06/21 01:53:38;;;;;;;12.32;5.82;;;;;;;16.76;100.00;101569.16;7410009;19;20018;-41
2022/06/21 01:56:11;;;;;;;10.25;5.45;;;;;;;16.73;100.00;101560.50;7410449;19;20011;-42
2022/06/21 01:58:48;;;;;;;8.65;5.28;;;;;;;16.82;100.00;101548.53;7409745;19;20399;-42
2022/06/21 02:01:22;;;;;;;11.07;4.70;;;;;;;16.58;100.00;101544.59;7410366;19;20452;-41
2022/06/21 02:03:56;;;;;;;11.23;4.60;;;;;;;16.63;100.00;101549.59;7406106;19;20033;-42
2022/06/21 02:06:29;;;;;;;11.45;4.70;;;;;;;16.57;100.00;101557.91;7402686;19;20025;-42
2022/06/21 02:09:04;;;;;;;9.50;5.15;;;;;;;16.62;100.00;101550.56;7399515;19;20017;-41
2022/06/21 02:11:38;;;;;;;10.48;5.15;;;;;;;16.52;100.00;101552.03;7398606;19;20015;-41
2022/06/21 02:14:33;;;;;;;11.52;4.57;;;;;;;16.58;100.00;101552.53;7405809;19;20010;-41
2022/06/21 02:17:18;;;;;;;9.18;5.40;;;;;;;17.02;100.00;101558.84;7404894;19;20025;-41
2022/06/21 02:19:51;;;;;;;10.20;4.97;;;;;;;17.16;100.00;101558.00;7407164;19;20017;-41
2022/06/21 02:22:24;;;;;;;11.30;5.18;;;;;;;17.16;100.00;101565.94;7407122;19;20018;-42
2022/06/21 02:24:54;;;;;;;;;;;;;;;17.12;100.00;101561.75;7400723;19;20098;-42
2022/06/21 02:27:29;;;;;;;10.77;5.00;;;;;;;17.14;100.00;101561.69;7405879;19;19919;-42
2022/06/21 02:30:05;;;;;;;11.55;5.20;;;;;;;17.01;100.00;101554.47;7406178;19;20094;-42
2022/06/21 02:32:39;;;;;;;10.50;5.18;;;;;;;17.01;100.00;101554.47;7404314;19;20011;-42
2022/06/21 02:35:17;;;;;;;8.07;4.82;;;;;;;16.62;100.00;101563.81;7403147;19;20156;-42
2022/06/21 02:37:48;;;;;;;9.88;4.93;;;;;;;16.38;100.00;101561.63;7393137;19;20018;-41
2022/06/21 02:40:22;;;;;;;12.18;5.63;;;;;;;16.44;100.00;101571.00;7395361;19;20021;-40
2022/06/21 02:42:53;;;;;;;10.15;5.55;;;;;;;16.87;100.00;101573.78;7396585;19;20360;-40
2022/06/21 02:45:31;;;;;;;8.63;5.40;;;;;;;17.05;100.00;101573.66;7393998;19;20026;-40
2022/06/21 02:48:08;;;;;;;12.10;5.32;;;;;;;16.99;100.00;101574.88;7395208;19;20010;-40
2022/06/21 02:50:43;;;;;;;13.50;7.43;;;;;;;16.88;100.00;101590.56;7394846;19;20014;-40
2022/06/21 02:53:18;;;;;;;10.38;5.50;;;;;;;16.92;100.00;101587.66;7394705;19;20010;-40
2022/06/21 02:55:53;;;;;;;9.48;5.10;;;;;;;16.87;100.00;101583.53;7393862;19;20011;-41
2022/06/21 02:58:27;;;;;;;9.27;5.07;;;;;;;16.78;100.00;101575.19;7391874;19;20362;-40
2022/06/21 03:01:01;;;;;;;11.05;4.93;;;;;;;16.80;100.00;101574.25;7394356;19;20029;-41
2022/06/21 03:03:33;;;;;;;8.95;4.70;;;;;;;16.73;100.00;101571.94;7393933;19;20122;-41
2022/06/21 03:06:09;;;;;;;9.85;5.03;;;;;;;16.78;100.00;101561.94;7394358;19;20021;-41
2022/06/21 03:08:48;;;;;;;9.20;5.45;;;;;;;16.89;100.00;101560.50;7394154;19;20471;-41
2022/06/21 03:11:17;;;;;;;9.18;5.20;;;;;;;17.02;100.00;101553.53;7394539;19;20456;-41
2022/06/21 03:13:46;;;;;;;11.23;4.70;;;;;;;16.53;100.00;101557.22;7394100;19;20018;-41
2022/06/21 03:16:20;;;;;;;7.40;4.70;;;;;;;16.62;100.00;101553.22;7393017;19;20009;-41
2022/06/21 03:18:53;;;;;;;16.27;5.78;;;;;;;16.98;100.00;101543.22;7393148;19;20492;-41
2022/06/21 03:21:26;;;;;;;;;;;;;;;17.04;100.00;101542.88;7391804;19;20086;-41
2022/06/21 03:23:56;;;;;;;10.57;5.20;;;;;;;17.01;100.00;101545.69;7394301;19;19940;-41
2022/06/21 03:26:26;;;;;;;9.80;5.20;;;;;;;16.88;100.00;101532.34;7393746;19;20022;-42
2022/06/21 03:28:55;;;;;;;11.45;5.38;;;;;;;16.82;100.00;101535.28;7391967;19;20073;-41
2022/06/21 03:31:31;;;;;;;9.00;5.18;;;;;;;16.68;100.00;101526.38;7398773;19;20003;-41
2022/06/21 03:34:06;;;;;;;11.85;5.20;;;;;;;16.66;100.00;101522.97;7398076;19;20017;-40
2022/06/21 03:36:35;;;;;;;11.68;5.30;;;;;;;16.66;100.00;101517.66;7399146;19;20022;-40
2022/06/21 03:39:10;;;;;;;10.27;5.20;;;;;;;16.69;100.00;101514.88;7393117;19;20007;-40
2022/06/21 03:41:45;;;;;;;9.48;5.20;;;;;;;16.55;100.00;101526.25;7393971;19;20023;-40
2022/06/21 03:44:28;;;;;;;9.38;5.20;;;;;;;16.44;100.00;101523.38;7392648;19;20024;-40
2022/06/21 03:47:04;;;;;;;9.65;5.15;;;;;;;16.40;100.00;101516.56;7392744;19;20620;-41
2022/06/21 03:49:41;;;;;;;12.10;5.40;;;;;;;16.28;100.00;101515.47;7392602;19;20114;-41
2022/06/21 03:52:41;;;;;;;13.10;5.78;;;;;;;16.49;100.00;101518.69;7393598;19;20025;-40
2022/06/21 03:55:13;;;;;;;11.68;5.45;;;;;;;16.48;100.00;101527.56;7392306;19;20010;-40
2022/06/21 03:57:51;;;;;;;13.05;5.60;;;;;;;16.65;100.00;101529.22;7393149;19;20492;-41
2022/06/21 04:00:21;;;;;;;12.45;5.28;;;;;;;16.70;100.00;101527.13;7392963;19;20049;-40
2022/06/21 04:02:58;;;;;;;9.85;5.30;;;;;;;16.61;100.00;101539.13;7393177;19;20018;-39
2022/06/21 04:05:34;;;;;;;15.20;5.90;;;;;;;16.49;100.00;101539.84;7394004;19;20070;-40
2022/06/21 04:08:10;;;;;;;11.48;4.53;;;;;;;16.35;100.00;101532.69;7394196;19;20018;-40
2022/06/21 04:10:43;;;;;;;15.82;5.05;;;;;;;16.37;100.00;101533.44;7407637;19;20022;-40
2022/06/21 04:13:20;;;;;;;9.68;5.10;;;;;;;16.50;100.00;101538.03;7405806;19;20018;-41
2022/06/21 04:15:54;;;;;;;12.35;4.63;;;;;;;16.48;100.00;101534.66;7405526;19;20026;-41
2022/06/21 04:18:33;;;;;;;10.35;4.72;;;;;;;16.52;100.00;101539.66;7403348;19;20026;-40
2022/06/21 04:21:07;;;;;;;10.65;5.03;;;;;;;16.51;100.00;101539.75;7402131;19;20018;-41
2022/06/21 04:23:41;;;;;;;8.95;5.10;;;;;;;16.57;100.00;101542.88;7392922;19;20018;-41
2022/06/21 04:26:14;;;;;;;9.88;4.85;;;;;;;16.71;100.00;101528.00;7392628;19;20014;-41
2022/06/21 04:28:50;;;;;;;9.13;5.10;;;;;;;16.74;100.00;101510.13;7390497;19;20025;-41
2022/06/21 04:31:24;;;;;;;7.50;4.60;;;;;;;16.64;100.00;101514.28;7394524;19;20022;-41
2022/06/21 04:34:00;;;;;;;8.20;5.20;;;;;;;16.68;100.00;101529.03;7399367;19;20019;-41
2022/06/21 04:36:35;;;;;;;10.93;5.35;;;;;;;16.91;100.00;101538.28;7400125;19;20030;-41
2022/06/21 04:39:09;;;;;;;9.80;4.88;;;;;;;16.95;100.00;101549.56;7399747;19;20499;-41
2022/06/21 04:41:43;;;;;;;11.40;5.63;;;;;;;16.94;100.00;101559.28;7398228;19;20018;-41
2022/06/21 04:44:17;;;;;;;10.45;4.88;;;;;;;16.91;100.00;101545.38;7397678;19;20039;-41
2022/06/21 04:46:50;;;;;;;10.38;4.63;;;;;;;16.82;100.00;101545.88;7399376;19;20011;-41
2022/06/21 04:49:27;;;;;;;10.65;5.15;;;;;;;16.94;100.00;101543.41;7398812;19;20026;-41
2022/06/21 04:52:03;;;;;;;8.80;6.00;;;;;;;16.77;100.00;101536.41;7399322;19;20484;-41
2022/06/21 04:54:34;;;;;;;9.48;5.20;;;;;;;16.90;100.00;101535.72;7397935;19;20113;-40
2022/06/21 04:57:09;;;;;;;10.45;5.00;;;;;;;16.94;100.00;101534.63;7397384;19;20018;-40
2022/06/21 04:59:41;;;;;;;11.02;4.78;;;;;;;17.02;100.00;101536.78;7399825;19;20030;-40
2022/06/21 05:02:18;;;;;;;13.15;5.30;;;;;;;16.92;100.00;101523.25;7399396;19;20062;-41
2022/06/21 05:04:53;;;;;;;10.07;4.72;;;;;;;17.04;100.00;101521.69;7397664;19;20037;-40
2022/06/21 05:07:26;;;;;;;12.35;5.03;;;;;;;17.03;100.00;101509.38;7399148;19;20025;-40
2022/06/21 05:09:57;;;;;;;12.10;5.03;;;;;;;17.01;100.00;101500.69;7398310;19;20023;-40
2022/06/21 05:12:31;;;;;;;11.60;5.60;;;;;;;17.17;100.00;101497.94;7399824;19;20476;-40
2022/06/21 05:15:05;;;;;;;9.27;4.90;;;;;;;17.21;100.00;101505.59;7398050;19;20018;-41
2022/06/21 05:17:37;;;;;;;15.23;5.32;;;;;;;17.24;100.00;101509.88;7400991;19;20014;-40
2022/06/21 05:20:18;;;;;;;12.60;4.85;;;;;;;17.19;100.00;101490.75;7401160;19;20382;-44
2022/06/21 05:22:50;;;;;;;8.30;5.25;;;;;;;17.23;100.00;101487.81;7400393;19;20014;-41
2022/06/21 05:25:24;;;;;;;8.07;4.30;;;;;;;17.07;100.00;101487.91;7398029;19;20021;-40
2022/06/21 05:27:59;;;;;;;11.57;4.90;;;;;;;17.23;100.00;101493.09;7399607;19;20007;-42
2022/06/21 05:30:38;;;;;;;34.50;5.88;;;;;;;17.39;100.00;101487.72;7397381;19;20037;-41
2022/06/21 05:33:13;;;;;;;10.90;3.90;;;;;;;17.58;100.00;101491.84;7398890;19;20018;-41
2022/06/21 05:35:45;;;;;;;10.32;4.45;;;;;;;17.33;100.00;101490.75;7398429;19;20019;-40
2022/06/21 05:38:20;;;;;;;31.30;4.47;;;;;;;17.24;100.00;101491.34;7395709;19;20024;-41
2022/06/21 05:40:56;;;;;;;11.90;3.83;;;;;;;17.52;100.00;101485.13;7397571;19;20014;-41
2022/06/21 05:43:34;;;;;;;13.73;3.78;;;;;;;17.72;100.00;101488.34;7395299;19;20021;-46
2022/06/21 05:46:07;;;;;;;9.02;3.35;;;;;;;17.70;100.00;101485.78;7397366;19;20018;-40
2022/06/21 05:48:40;;;;;;;7.53;3.10;;;;;;;17.66;100.00;101480.78;7397795;19;20022;-40
2022/06/21 05:51:17;;;;;;;7.47;3.20;;;;;;;17.81;100.00;101485.09;7397261;19;20015;-40
2022/06/21 05:53:50;;;;;;;10.23;3.05;;;;;;;17.88;100.00;101485.53;7397096;19;20025;-40
2022/06/21 05:56:22;;;;;;;10.40;3.03;;;;;;;17.77;100.00;101489.75;7397892;19;20353;-40
2022/06/21 05:58:56;;;;;;;5.82;2.58;;;;;;;17.88;100.00;101496.16;7395346;19;20015;-40
2022/06/21 06:01:30;;;;;;;10.25;3.00;;;;;;;18.02;100.00;101497.94;7397855;19;20494;-41
2022/06/21 06:04:06;;;;;;;8.05;2.97;;;;;;;17.87;100.00;101495.31;7396443;19;20488;-40
2022/06/21 06:06:39;;;;;;;11.73;3.08;;;;;;;17.90;100.00;101500.44;7397867;19;20014;-41
2022/06/21 06:09:14;;;;;;;7.82;2.97;;;;;;;18.07;100.00;101498.50;7397504;19;20025;-40
2022/06/21 06:12:00;;;;;;;7.32;2.97;;;;;;;18.28;100.00;101498.88;7396944;19;20014;-40
2022/06/21 06:14:37;;;;;;;7.90;3.10;;;;;;;18.26;100.00;101501.66;7396889;19;20017;-40
2022/06/21 06:17:14;;;;;;;9.50;2.55;;;;;;;18.45;99.21;101503.06;7398136;19;20022;-41
2022/06/21 06:19:48;;;;;;;7.00;2.90;;;;;;;18.41;100.00;101504.22;7397945;19;20034;-41
2022/06/21 06:22:27;;;;;;;7.10;2.63;;;;;;;18.49;100.00;101507.22;7398831;19;20014;-41
2022/06/21 06:25:02;;;;;;;7.50;2.50;;;;;;;18.63;99.21;101504.50;7396407;19;20494;-41
2022/06/21 06:27:45;;;;;;;8.30;2.75;;;;;;;18.71;96.97;101500.47;7397300;19;20353;-42
2022/06/21 06:30:19;;;;;;;11.40;3.00;;;;;;;18.61;97.35;101506.41;7397203;19;20010;-43
2022/06/21 06:32:59;;;;;;;10.35;3.15;;;;;;;18.61;97.56;101511.72;7397448;19;20022;-42
2022/06/21 06:35:29;;;;;;;19.83;3.88;;;;;;;18.69;97.31;101511.19;7397789;19;20019;-51
2022/06/21 06:38:00;;;;;;;23.48;4.20;;;;;;;18.95;96.10;101519.22;7396939;19;20022;-42
2022/06/21 06:40:39;;;;;;;11.32;3.20;;;;;;;18.93;96.16;101532.63;7396077;19;20007;-41
2022/06/21 06:43:15;;;;;;;9.10;3.00;;;;;;;18.88;96.19;101520.59;7397133;19;20481;-40
2022/06/21 06:45:45;;;;;;;10.70;3.88;;;;;;;18.84;99.01;101522.56;7397038;19;20010;-41
2022/06/21 06:48:20;;;;;;;8.00;3.40;;;;;;;18.72;97.22;101526.91;7396278;19;20014;-42
2022/06/21 06:50:58;;;;;;;7.80;2.60;;;;;;;18.81;97.20;101526.31;7395572;19;20021;-41
2022/06/21 06:53:37;;;;;;;13.65;2.60;;;;;;;19.13;94.86;101533.91;7397555;19;20409;-43
2022/06/21 06:56:12;;;;;;;13.63;2.90;;;;;;;19.13;96.03;101546.34;7395445;19;20032;-42
2022/06/21 06:58:46;;;;;;;10.00;3.40;;;;;;;19.04;95.25;101546.97;7394640;19;20014;-48
2022/06/21 07:01:18;;;;;;;5.50;2.80;;;;;;;19.18;94.34;101561.00;7395503;19;20075;-40
2022/06/21 07:03:53;;;;;;;8.65;3.38;;;;;;;19.17;92.78;101561.09;7395968;19;20022;-41
2022/06/21 07:06:36;;;;;;;9.52;3.80;;;;;;;19.16;91.99;101568.22;7396094;19;20014;-40
2022/06/21 07:09:10;;;;;;;;;;;;;;;18.95;93.29;101582.97;7396857;19;20010;-41
2022/06/21 07:11:52;;;;;;;7.80;3.83;;;;;;;19.06;93.53;101575.13;7397058;19;19982;-41
2022/06/21 07:14:24;;;;;;;11.50;4.93;;;;;;;19.16;93.54;101572.69;7395080;19;20025;-40
2022/06/21 07:16:57;;;;;;;9.63;4.47;;;;;;;19.19;94.17;101577.78;7395341;19;20026;-40
2022/06/21 07:19:27;;;;;;;19.17;6.25;;;;;;;19.25;95.97;101574.69;7393831;19;20104;-40
2022/06/21 07:21:57;;;;;;;33.28;13.60;;;;;;;19.31;93.51;101587.59;7396088;19;20006;-40
2022/06/21 07:24:28;;;;;;;42.80;11.02;;;;;;;19.21;92.53;101578.53;7394196;19;20026;-40
2022/06/21 07:27:03;;;;;;;24.08;9.55;;;;;;;19.23;90.97;101576.63;7397080;19;20003;-42
2022/06/21 07:29:37;;;;;;;13.40;6.85;;;;;;;19.21;91.72;101570.56;7395639;19;20392;-40
2022/06/21 07:32:12;;;;;;;10.45;5.07;;;;;;;19.30;91.88;101575.25;7397672;19;20014;-40
2022/06/21 07:34:47;;;;;;;9.57;4.40;;;;;;;19.36;90.13;101584.59;7394768;19;20043;-40
2022/06/21 07:37:21;;;;;;;7.80;3.45;;;;;;;19.41;88.00;101582.47;7397240;19;20023;-42
2022/06/21 07:39:57;;;;;;;7.07;3.33;;;;;;;19.36;88.22;101566.84;7394459;19;20014;-40
2022/06/21 07:42:33;;;;;;;8.85;3.70;;;;;;;19.42;87.75;101570.03;7397575;19;20006;-40
2022/06/21 07:45:07;;;;;;;8.10;3.05;;;;;;;19.59;84.60;101577.66;7396076;19;20022;-42
2022/06/21 07:47:40;;;;;;;6.32;2.60;;;;;;;19.54;85.80;101579.78;7397774;19;20011;-40
2022/06/21 07:50:14;;;;;;;7.95;2.90;;;;;;;19.74;83.73;101572.22;7398237;19;20011;-40
2022/06/21 07:52:50;;;;;;;9.15;2.88;;;;;;;19.76;84.43;101576.47;7401356;19;20010;-41
2022/06/21 07:55:26;;;;;;;6.18;2.60;;;;;;;19.81;81.05;101577.03;7403872;19;20019;-41
2022/06/21 07:58:04;;;;;;;10.48;3.10;;;;;;;19.92;82.30;101562.13;7405603;19;20010;-41
2022/06/21 08:08:51;;;;;;;7.95;3.45;;;;;;;19.34;84.99;101555.47;7395177;19;20405;-41
2022/06/21 08:11:27;;;;;;;9.73;3.38;;;;;;;19.08;88.56;101551.09;7398552;19;20011;-40
2022/06/21 08:13:56;;;;;;;8.98;4.05;;;;;;;19.01;90.96;101540.03;7396034;19;20011;-40
2022/06/21 08:16:30;;;;;;;64.40;6.60;;;;;;;19.47;89.78;101549.28;7395783;19;20014;-41
2022/06/21 08:19:07;;;;;;;9.15;3.50;;;;;;;19.75;84.02;101540.19;7393775;19;20388;-41
2022/06/21 08:21:45;;;;;;;7.53;2.83;;;;;;;19.38;83.92;101539.31;7396120;19;20014;-42
2022/06/21 08:24:20;;;;;;;8.52;2.70;;;;;;;19.74;83.55;101537.66;7393658;19;20024;-40
2022/06/21 08:26:59;;;;;;;5.53;2.33;;;;;;;19.91;81.10;101542.63;7395344;19;20009;-42
2022/06/21 08:29:33;;;;;;;4.65;2.70;;;;;;;19.92;80.15;101547.00;7395478;19;20011;-42
2022/06/21 08:32:05;;;;;;;8.00;2.63;;;;;;;19.61;80.60;101537.69;7395789;19;20023;-42
2022/06/21 08:34:42;;;;;;;7.88;2.70;;;;;;;19.95;78.73;101524.66;7395482;19;20053;-41
2022/06/21 08:37:17;;;;;;;8.18;2.28;;;;;;;20.05;80.00;101523.84;7397859;19;20007;-41
2022/06/21 08:39:52;;;;;;;5.43;2.35;;;;;;;20.38;78.21;101516.16;7395085;19;20015;-40
2022/06/21 08:42:49;;;;;;;4.53;2.08;;;;;;;20.56;75.51;101519.22;7392996;19;20015;-40
2022/06/21 08:45:51;;;;;;;5.07;2.30;;;;;;;20.31;75.36;101514.91;7392149;19;20023;-42
2022/06/21 08:48:52;;;;;;;9.18;3.35;;;;;;;20.62;75.16;101509.94;7393087;19;20082;-40
2022/06/21 08:51:47;;;;;;;7.93;2.15;;;;;;;20.83;71.98;101504.81;7393956;19;20018;-40
2022/06/21 08:54:26;;;;;;;10.57;3.30;;;;;;;21.02;70.26;101499.78;7393672;19;20030;-40
2022/06/21 08:57:11;;;;;;;647.85;44.45;;;;;;;21.12;71.35;101493.72;7391413;19;20010;-41
2022/06/21 08:59:56;;;;;;;11.02;2.38;;;;;;;21.35;69.51;101491.88;7392696;19;20402;-41
2022/06/21 09:02:34;;;;;;;10.65;2.92;;;;;;;21.34;70.32;101492.88;7394260;19;20022;-40
2022/06/21 09:05:15;;;;;;;14.23;3.35;;;;;;;21.49;69.74;101502.34;7392187;19;20026;-40
2022/06/21 09:08:12;;;;;;;7.72;3.00;;;;;;;21.57;65.68;101504.41;7391782;19;20033;-39
2022/06/21 09:10:53;;;;;;;7.57;3.47;;;;;;;21.19;67.56;101497.59;7394599;19;20368;-41
2022/06/21 09:13:34;;;;;;;8.02;3.15;;;;;;;21.16;71.33;101498.69;7393411;19;20018;-40
2022/06/21 09:16:12;;;;;;;9.02;3.10;;;;;;;21.34;68.06;101493.72;7394159;19;20241;-42
2022/06/21 09:18:56;;;;;;;14.32;3.30;;;;;;;21.79;67.95;101490.16;7393974;19;20018;-42
2022/06/21 09:21:30;;;;;;;9.75;3.10;;;;;;;22.15;67.03;101480.13;7399360;19;20014;-40
2022/06/21 09:24:02;;;;;;;12.50;3.35;;;;;;;21.89;64.61;101476.94;7400259;19;20025;-40
2022/06/21 09:26:40;;;;;;;9.23;3.55;;;;;;;21.74;64.41;101471.03;7398943;19;20053;-41
2022/06/21 09:29:18;;;;;;;6.15;2.50;;;;;;;21.53;67.26;101476.28;7398220;19;20011;-41
2022/06/21 09:32:01;;;;;;;6.80;2.60;;;;;;;21.95;61.84;101477.28;7400964;19;20015;-41
2022/06/21 09:34:36;;;;;;;8.02;3.67;;;;;;;21.99;60.12;101472.53;7400302;19;20361;-42
2022/06/21 09:37:21;;;;;;;5.85;2.20;;;;;;;22.17;56.64;101482.69;7400585;19;20014;-42
2022/06/21 09:39:58;;;;;;;7.68;2.35;;;;;;;22.21;59.05;101479.63;7397531;19;20011;-42
2022/06/21 09:42:33;;;;;;;4.90;2.10;;;;;;;22.22;55.22;101475.09;7399428;19;20022;-43
2022/06/21 09:45:13;;;;;;;8.45;2.40;;;;;;;22.35;55.06;101467.81;7398793;19;20029;-42
2022/06/21 09:47:56;;;;;;;6.80;1.70;;;;;;;22.45;54.03;101459.84;7399375;19;20527;-42
2022/06/21 09:50:35;;;;;;;3.80;1.67;;;;;;;22.51;50.15;101456.69;7399686;19;20011;-50
2022/06/21 09:53:12;;;;;;;10.05;2.20;;;;;;;22.54;51.98;101453.75;7399072;19;20015;-42
2022/06/21 09:55:50;;;;;;;9.65;2.33;;;;;;;22.44;52.56;101456.34;7399782;19;20018;-40
2022/06/21 09:58:26;;;;;;;3.90;1.63;;;;;;;22.27;54.10;101452.41;7402864;19;20021;-40
2022/06/21 10:01:05;;;;;;;12.05;2.58;;;;;;;22.50;54.93;101446.13;7408031;19;20011;-40
2022/06/21 10:03:46;;;;;;;7.50;2.30;;;;;;;22.62;56.23;101442.38;7411019;19;20021;-40
2022/06/21 10:06:25;;;;;;;6.72;1.88;;;;;;;22.69;52.47;101434.72;7410745;19;20027;-40
2022/06/21 10:09:11;;;;;;;3.25;1.80;;;;;;;22.67;52.52;101445.53;7413485;19;20015;-41
2022/06/21 10:11:52;;;;;;;15.43;2.40;;;;;;;22.71;55.20;101452.31;7412814;19;20015;-40
2022/06/21 10:14:32;;;;;;;5.03;1.80;;;;;;;22.82;52.85;101443.34;7409305;19;20018;-40
2022/06/21 10:17:26;;;;;;;7.00;1.90;;;;;;;22.92;50.87;101428.19;7411571;19;20015;-39
2022/06/21 10:20:13;;;;;;;3.35;1.63;;;;;;;22.89;48.61;101438.31;7410997;19;20010;-40
2022/06/21 10:22:51;;;;;;;5.00;1.27;;;;;;;23.03;50.23;101445.97;7416894;19;20010;-40
2022/06/21 10:25:38;;;;;;;5.93;1.42;;;;;;;23.18;46.73;101427.75;7407425;19;20015;-39
2022/06/21 10:28:32;;;;;;;7.32;1.13;;;;;;;23.49;46.16;101409.00;7400884;19;20045;-40
2022/06/21 10:31:28;;;;;;;3.60;1.20;;;;;;;23.39;47.07;101416.16;7402704;19;20014;-40
2022/06/21 10:34:29;;;;;;;8.88;2.38;;;;;;;23.35;47.49;101412.91;7412062;19;20025;-40
2022/06/21 10:37:26;;;;;;;5.32;1.40;;;;;;;23.21;46.44;101405.25;7415715;19;20019;-40
2022/06/21 10:40:23;;;;;;;4.15;1.27;;;;;;;23.40;48.04;101404.50;7412107;19;20010;-40
2022/06/21 10:43:09;;;;;;;4.95;1.20;;;;;;;23.71;46.69;101397.19;7416882;19;20014;-40
2022/06/21 10:45:50;;;;;;;5.05;1.30;;;;;;;23.84;45.74;101397.78;7410803;19;20011;-40
2022/06/21 10:48:52;;;;;;;5.43;1.05;;;;;;;23.95;45.90;101406.66;7397523;19;20049;-41
2022/06/21 10:51:30;;;;;;;7.28;1.58;;;;;;;23.91;45.70;101406.09;7398343;19;20018;-41
2022/06/21 10:54:18;;;;;;;5.35;1.30;;;;;;;24.12;45.88;101415.81;7397104;19;20018;-40
2022/06/21 10:57:12;;;;;;;6.55;1.23;;;;;;;24.04;44.58;101413.84;7399197;19;20021;-39
2022/06/21 11:03:02;;;;;;;2.75;1.30;;;;;;;24.66;44.49;101416.19;7398742;19;20500;-39
2022/06/21 11:05:38;;;;;;;4.83;1.50;;;;;;;24.41;44.62;101413.09;7398536;19;20018;-40
2022/06/21 11:08:25;;;;;;;5.78;1.20;;;;;;;24.57;41.57;101414.31;7398315;19;20029;-40
2022/06/21 11:11:03;;;;;;;3.03;1.10;;;;;;;24.58;40.55;101411.50;7396931;19;20014;-40
2022/06/21 11:13:37;;;;;;;7.15;2.15;;;;;;;24.45;42.42;101411.81;7397484;19;20022;-40
2022/06/21 11:16:13;;;;;;;3.17;1.30;;;;;;;24.66;42.70;101413.50;7397858;19;20503;-40
2022/06/21 11:18:53;;;;;;;3.67;1.20;;;;;;;24.92;43.01;101415.53;7394638;19;20109;-40
2022/06/21 11:21:33;;;;;;;7.22;2.63;;;;;;;24.83;42.22;101411.88;7398891;19;20024;-40
2022/06/21 11:24:13;;;;;;;2.95;1.30;;;;;;;24.62;43.01;101396.03;7397984;19;20499;-40
2022/06/21 11:26:55;;;;;;;5.88;2.13;;;;;;;24.09;44.04;101395.53;7398803;19;20046;-40
2022/06/21 11:29:36;;;;;;;11.48;1.70;;;;;;;24.41;43.88;101405.06;7399169;19;20019;-40
2022/06/21 11:32:16;;;;;;;5.95;1.30;;;;;;;24.51;42.48;101400.50;7397398;19;20014;-40
2022/06/21 11:34:51;;;;;;;3.75;1.10;;;;;;;24.53;42.05;101401.22;7396238;19;20010;-41
2022/06/21 11:37:37;;;;;;;10.50;1.40;;;;;;;24.80;44.14;101404.13;7397017;19;20349;-39
2022/06/21 11:40:23;;;;;;;3.47;1.30;;;;;;;24.84;41.97;101403.66;7395733;19;20019;-40
2022/06/21 11:42:58;;;;;;;1.92;0.85;;;;;;;25.33;40.24;101400.81;7396338;19;20025;-40
2022/06/21 11:45:41;;;;;;;5.63;1.20;;;;;;;26.12;38.65;101406.44;7396954;19;20558;-39
2022/06/21 11:48:46;;;;;;;5.78;1.30;;;;;;;27.35;36.39;101409.00;7396472;19;20018;-40
2022/06/21 11:51:37;;;;;;;5.65;1.20;;;;;;;27.61;33.69;101403.47;7394733;19;20013;-41
2022/06/21 11:54:12;;;;;;;4.28;1.13;;;;;;;27.79;34.61;101406.00;7398151;19;20022;-41
2022/06/21 11:56:51;;;;;;;47.00;4.13;;;;;;;27.52;35.34;101412.53;7397725;19;20022;-41
2022/06/21 11:59:30;;;;;;;3.58;1.17;;;;;;;27.34;33.85;101403.72;7395389;19;20043;-41
2022/06/21 12:02:04;;;;;;;3.03;0.95;;;;;;;27.08;34.89;101400.13;7397333;19;20007;-40
2022/06/21 12:04:43;;;;;;;4.07;1.05;;;;;;;26.70;33.98;101398.78;7393073;19;20011;-41
2022/06/21 12:07:17;;;;;;;10.10;1.50;;;;;;;27.00;34.21;101394.69;7397469;19;20026;-41
2022/06/21 12:09:55;;;;;;;5.05;1.20;;;;;;;27.05;34.50;101387.00;7395091;19;20023;-41
2022/06/21 12:12:40;;;;;;;6.20;1.23;;;;;;;27.01;34.66;101391.03;7396590;19;20018;-41
2022/06/21 12:15:26;;;;;;;3.42;1.23;;;;;;;26.74;34.57;101384.00;7394916;19;20488;-42